LFCK/DCM METAR and TAF weather

Enter ICAO airport designator
Station Type Date Time Source
LFCK METAR 2019/12/10 06:00 UTC NOAA

LFCK 100600Z AUTO 31010KT 9999 OVC008 04/04 Q1030


Station Type Date Time Source
LFCK Decoded METAR 2019/12/10 06:00 UTC NOAA

Station name not available
Dec 10, 2019 - 01:00 AM EST / 2019.12.10 0600 UTC
Wind: from the NW (310 degrees) at 12 MPH (10 KT):0
Visibility: greater than 7 mile(s):0
Sky conditions: overcast
Temperature: 39 F (4 C)
Dew Point: 39 F (4 C)
Relative Humidity: 100%
Pressure (altimeter): 30.42 in. Hg (1030 hPa)
ob: LFCK 100600Z AUTO 31010KT 9999 OVC008 04/04 Q1030
cycle: 6

Station Type Date Time Source
LFCK TAF UTC NOAA

Error!

Example: see airport list